Time;durP1;ratioP1;P1;durP2;ratioP2;P2;SDS_P1;SDS_P2;PMS_P1;PMS_P2;Temp;Humidity;BMP_temperature;BMP_pressure;BME280_temperature;BME280_humidity;BME280_pressure;Samples;Min_cycle;Max_cycle;Signal;HPM_P1;HPM_P2
2020/12/14 00:02:19;;;;;;;129.82;56.70;;;5.80;94.80;;;;;;5094666;28;20487;-69
2020/12/14 00:04:45;;;;;;;111.70;50.30;;;5.80;95.00;;;;;;5094100;28;20024;-71
2020/12/14 00:07:11;;;;;;;100.07;43.10;;;5.80;94.90;;;;;;5094568;28;20032;-70
2020/12/14 00:09:37;;;;;;;101.68;43.85;;;5.80;94.80;;;;;;5094249;28;20024;-69
2020/12/14 00:12:04;;;;;;;236.60;90.45;;;5.80;94.70;;;;;;5093685;28;20032;-71
2020/12/14 00:14:29;;;;;;;155.85;59.70;;;5.70;94.70;;;;;;5092771;28;20024;-69
2020/12/14 00:16:55;;;;;;;75.38;35.22;;;5.70;94.50;;;;;;5093883;28;20034;-70
2020/12/14 00:19:22;;;;;;;128.68;52.53;;;5.80;94.90;;;;;;5092527;28;20064;-70
2020/12/14 00:21:52;;;;;;;295.05;103.68;;;5.70;94.50;;;;;;5093769;28;20025;-70
2020/12/14 00:24:18;;;;;;;224.85;85.55;;;5.60;94.50;;;;;;5094089;28;20026;-69
2020/12/14 00:26:44;;;;;;;256.75;92.32;;;5.70;94.70;;;;;;5093984;28;20028;-71
2020/12/14 00:29:09;;;;;;;108.18;44.50;;;5.70;94.60;;;;;;5093559;28;20067;-68
2020/12/14 00:31:35;;;;;;;207.55;80.32;;;5.70;94.60;;;;;;5092199;28;20374;-70
2020/12/14 00:34:01;;;;;;;140.98;55.97;;;5.70;94.40;;;;;;5092619;28;20035;-68
2020/12/14 00:36:26;;;;;;;194.50;71.13;;;5.70;94.20;;;;;;5093821;28;20032;-69
2020/12/14 00:38:52;;;;;;;112.20;46.90;;;5.70;94.10;;;;;;5094068;28;20032;-69
2020/12/14 00:41:20;;;;;;;147.88;59.15;;;5.80;94.60;;;;;;5093537;28;20028;-69
2020/12/14 00:43:47;;;;;;;493.67;181.35;;;5.80;94.30;;;;;;5093570;28;20103;-68
2020/12/14 00:46:14;;;;;;;421.27;147.02;;;5.80;94.40;;;;;;5093452;28;20031;-68
2020/12/14 00:48:41;;;;;;;215.25;83.05;;;5.80;94.30;;;;;;5093723;28;20035;-69
2020/12/14 00:51:07;;;;;;;210.98;85.53;;;5.80;94.40;;;;;;5093727;28;20031;-69
2020/12/14 00:53:33;;;;;;;276.45;105.72;;;5.80;94.40;;;;;;5092156;28;20020;-70
2020/12/14 00:56:03;;;;;;;285.33;113.50;;;5.80;94.30;;;;;;5092376;28;20466;-71
2020/12/14 00:58:29;;;;;;;392.23;154.07;;;5.80;94.50;;;;;;5092548;28;20032;-69
2020/12/14 01:00:55;;;;;;;220.95;95.93;;;5.80;94.30;;;;;;5091832;28;20470;-69
2020/12/14 01:03:21;;;;;;;143.60;67.20;;;5.80;94.30;;;;;;5093960;28;20049;-68
2020/12/14 01:05:47;;;;;;;115.28;52.55;;;5.80;94.50;;;;;;5093593;28;20024;-70
2020/12/14 01:08:13;;;;;;;166.88;70.95;;;5.80;94.60;;;;;;5092991;28;20102;-71
2020/12/14 01:10:39;;;;;;;88.25;41.78;;;5.80;94.70;;;;;;5092369;28;20107;-69
2020/12/14 01:13:04;;;;;;;94.28;45.50;;;5.80;94.60;;;;;;5093740;28;20111;-69
2020/12/14 01:15:30;;;;;;;93.50;43.38;;;5.80;94.60;;;;;;5093467;28;20091;-71
2020/12/14 01:17:56;;;;;;;81.85;42.30;;;5.90;94.60;;;;;;5093520;28;20471;-71
2020/12/14 01:20:21;;;;;;;112.88;50.90;;;5.80;94.60;;;;;;5092253;28;20027;-70
2020/12/14 01:22:47;;;;;;;180.05;74.65;;;5.80;94.60;;;;;;5093221;28;20357;-70
2020/12/14 01:25:13;;;;;;;89.72;44.42;;;5.80;94.70;;;;;;5095681;28;20146;-71
2020/12/14 01:27:39;;;;;;;78.15;38.72;;;5.70;94.90;;;;;;5096789;28;20099;-69
2020/12/14 01:30:04;;;;;;;76.25;37.00;;;5.80;94.90;;;;;;5095879;28;20048;-69
2020/12/14 01:32:30;;;;;;;150.93;65.65;;;5.80;94.80;;;;;;5097242;28;20103;-69
2020/12/14 01:34:56;;;;;;;120.75;53.58;;;5.80;94.70;;;;;;5096534;28;20074;-70
2020/12/14 01:37:22;;;;;;;122.43;54.75;;;5.80;94.80;;;;;;5096807;28;20027;-70
2020/12/14 01:39:47;;;;;;;251.48;93.30;;;5.80;95.00;;;;;;5097060;28;20104;-73
2020/12/14 01:42:13;;;;;;;180.30;66.28;;;5.80;94.70;;;;;;5095441;28;20024;-70
2020/12/14 01:44:39;;;;;;;143.77;56.80;;;5.80;94.60;;;;;;5095780;28;20069;-71
2020/12/14 01:47:05;;;;;;;100.40;43.95;;;5.80;94.60;;;;;;5096946;28;20427;-68
2020/12/14 01:49:31;;;;;;;83.80;37.33;;;5.80;94.70;;;;;;5096246;28;20580;-69
2020/12/14 01:51:57;;;;;;;109.20;45.65;;;5.80;94.60;;;;;;5096847;28;20032;-70
2020/12/14 01:54:30;;;;;;;186.77;75.32;;;5.80;94.60;;;;;;5096482;28;20095;-70
2020/12/14 01:56:56;;;;;;;178.68;70.57;;;5.80;94.50;;;;;;5096379;28;20535;-69
2020/12/14 01:59:22;;;;;;;78.18;35.67;;;5.80;94.20;;;;;;5096747;28;20081;-70
2020/12/14 02:01:49;;;;;;;92.05;43.00;;;5.80;94.30;;;;;;5095339;28;20456;-68
2020/12/14 02:04:15;;;;;;;64.88;33.70;;;5.70;94.40;;;;;;5096004;28;20122;-71
2020/12/14 02:06:41;;;;;;;102.38;43.67;;;5.70;94.30;;;;;;5096566;28;20094;-69
2020/12/14 02:09:06;;;;;;;138.35;54.25;;;5.70;94.50;;;;;;5095240;28;20024;-71
2020/12/14 02:11:33;;;;;;;85.40;38.35;;;5.80;94.50;;;;;;5096187;28;20518;-70
2020/12/14 02:13:58;;;;;;;166.32;62.10;;;5.80;94.40;;;;;;5095117;28;20089;-69
2020/12/14 02:16:24;;;;;;;65.53;32.40;;;5.80;94.40;;;;;;5096296;28;20056;-70
2020/12/14 02:18:50;;;;;;;133.35;48.63;;;5.80;94.60;;;;;;5095067;28;20028;-68
2020/12/14 02:21:16;;;;;;;69.18;33.97;;;5.80;94.40;;;;;;5096535;28;20464;-70
2020/12/14 02:23:43;;;;;;;119.10;50.97;;;5.80;94.20;;;;;;5095914;28;20095;-71
2020/12/14 02:26:10;;;;;;;101.72;44.20;;;5.70;93.90;;;;;;5094931;28;20062;-70
2020/12/14 02:28:36;;;;;;;67.57;32.50;;;5.70;94.30;;;;;;5094838;28;20028;-70
2020/12/14 02:31:02;;;;;;;88.05;43.33;;;5.80;94.50;;;;;;5094292;28;20400;-71
2020/12/14 02:33:28;;;;;;;67.60;35.38;;;5.70;94.20;;;;;;5094764;28;20024;-70
2020/12/14 02:35:54;;;;;;;88.50;44.95;;;5.70;94.30;;;;;;5095526;28;20032;-68
2020/12/14 02:38:21;;;;;;;86.97;45.67;;;5.70;94.30;;;;;;5094875;28;20415;-70
2020/12/14 02:40:47;;;;;;;187.57;88.07;;;5.70;94.40;;;;;;5095930;28;20073;-68
2020/12/14 02:43:13;;;;;;;116.30;54.78;;;5.70;94.30;;;;;;5095824;28;20047;-69
2020/12/14 02:45:40;;;;;;;90.22;42.90;;;5.70;94.30;;;;;;5095491;28;20055;-71
2020/12/14 02:48:06;;;;;;;72.32;35.70;;;5.70;94.10;;;;;;5095435;28;20482;-70
2020/12/14 02:50:35;;;;;;;120.43;57.45;;;5.70;94.10;;;;;;5096010;28;20062;-70
2020/12/14 02:53:04;;;;;;;88.05;42.85;;;5.70;94.00;;;;;;5094277;28;20472;-70
2020/12/14 02:55:31;;;;;;;137.63;65.32;;;5.60;94.10;;;;;;5095522;28;20099;-68
2020/12/14 02:57:57;;;;;;;72.90;36.35;;;5.60;93.80;;;;;;5095565;28;20108;-70
2020/12/14 03:00:23;;;;;;;107.15;52.60;;;5.70;94.40;;;;;;5093926;28;20028;-70
2020/12/14 03:02:49;;;;;;;105.10;48.97;;;5.70;93.90;;;;;;5094201;28;20028;-68
2020/12/14 03:05:14;;;;;;;64.78;33.83;;;5.70;93.80;;;;;;5095281;28;20103;-69
2020/12/14 03:07:40;;;;;;;79.07;41.00;;;5.70;94.00;;;;;;5095078;28;20096;-69
2020/12/14 03:10:06;;;;;;;84.05;41.90;;;5.60;93.90;;;;;;5095102;28;20408;-70
2020/12/14 03:12:35;;;;;;;72.20;37.60;;;5.70;93.90;;;;;;5094974;28;20020;-69
2020/12/14 03:15:00;;;;;;;81.05;42.58;;;5.70;93.70;;;;;;5095253;28;20085;-69
2020/12/14 03:17:27;;;;;;;96.93;50.63;;;5.70;94.00;;;;;;5095153;28;20111;-68
2020/12/14 03:19:52;;;;;;;91.95;48.25;;;5.70;94.10;;;;;;5095105;28;20031;-69
2020/12/14 03:22:18;;;;;;;93.47;53.08;;;5.70;93.90;;;;;;5095394;28;20047;-68
2020/12/14 03:24:44;;;;;;;51.83;29.40;;;5.70;93.70;;;;;;5093757;28;20028;-68
2020/12/14 03:27:11;;;;;;;59.97;30.75;;;5.70;93.70;;;;;;5093435;28;20035;-70
2020/12/14 03:29:37;;;;;;;102.03;57.53;;;5.70;94.30;;;;;;5094630;28;20069;-69
2020/12/14 03:32:02;;;;;;;62.03;33.55;;;5.70;93.70;;;;;;5095280;28;20414;-68
2020/12/14 03:34:28;;;;;;;46.08;26.52;;;5.60;93.60;;;;;;5093241;28;20024;-69
2020/12/14 03:36:56;;;;;;;52.95;29.25;;;5.60;93.70;;;;;;5093468;28;20059;-69
2020/12/14 03:39:21;;;;;;;49.60;29.50;;;5.60;93.80;;;;;;5094125;28;20438;-68
2020/12/14 03:41:50;;;;;;;51.75;29.05;;;5.60;93.90;;;;;;5094475;28;20020;-68
2020/12/14 03:44:16;;;;;;;53.00;32.83;;;5.60;93.60;;;;;;5094855;28;20020;-69
2020/12/14 03:46:41;;;;;;;56.30;34.97;;;5.60;93.70;;;;;;5094507;28;20476;-70
2020/12/14 03:49:09;;;;;;;49.80;27.38;;;5.60;93.80;;;;;;5093815;28;20028;-69
2020/12/14 03:51:35;;;;;;;88.18;41.33;;;5.60;93.80;;;;;;5094555;28;20020;-68
2020/12/14 03:54:01;;;;;;;88.68;43.58;;;5.50;93.80;;;;;;5094500;28;20103;-68
2020/12/14 03:56:27;;;;;;;55.50;29.95;;;5.50;93.80;;;;;;5092870;28;20097;-70
2020/12/14 03:58:53;;;;;;;51.33;28.92;;;5.50;93.80;;;;;;5094803;28;20028;-69
2020/12/14 04:01:24;;;;;;;62.08;34.38;;;5.50;93.90;;;;;;5094114;28;20111;-69
2020/12/14 04:03:50;;;;;;;65.18;36.90;;;5.40;94.10;;;;;;5092988;28;20020;-70
2020/12/14 04:06:23;;;;;;;63.75;35.22;;;5.50;94.00;;;;;;5093042;28;20476;-70
2020/12/14 04:08:50;;;;;;;64.40;34.75;;;5.50;93.90;;;;;;5093766;28;20073;-68
2020/12/14 04:11:16;;;;;;;61.78;33.97;;;5.40;94.10;;;;;;5094263;28;20035;-70
2020/12/14 04:13:42;;;;;;;66.38;38.03;;;5.50;93.60;;;;;;5094501;28;20035;-68
2020/12/14 04:16:11;;;;;;;73.15;43.33;;;5.50;93.70;;;;;;5093577;28;20494;-68
2020/12/14 04:18:37;;;;;;;55.30;32.25;;;5.50;93.80;;;;;;5094411;28;20028;-70
2020/12/14 04:21:04;;;;;;;36.40;20.65;;;5.50;93.70;;;;;;5092823;28;20046;-68
2020/12/14 04:23:30;;;;;;;38.80;23.23;;;5.40;93.10;;;;;;5092506;28;20024;-70
2020/12/14 04:25:56;;;;;;;43.35;25.63;;;5.40;93.50;;;;;;5092822;28;20110;-68
2020/12/14 04:28:22;;;;;;;38.40;23.80;;;5.40;93.30;;;;;;5093008;28;20446;-68
2020/12/14 04:30:48;;;;;;;47.03;29.23;;;5.40;93.60;;;;;;5093707;28;20123;-69
2020/12/14 04:33:14;;;;;;;38.20;23.83;;;5.30;93.20;;;;;;5092643;28;20028;-69
2020/12/14 04:35:39;;;;;;;36.17;22.48;;;5.40;93.30;;;;;;5092603;28;21986;-70
2020/12/14 04:38:05;;;;;;;32.80;21.58;;;5.40;92.90;;;;;;5093668;28;20082;-70
2020/12/14 04:40:31;;;;;;;35.65;22.98;;;5.40;92.90;;;;;;5092655;28;20081;-70
2020/12/14 04:42:58;;;;;;;36.15;22.25;;;5.40;92.90;;;;;;5093582;28;20403;-70
2020/12/14 04:45:28;;;;;;;40.00;24.13;;;5.40;92.70;;;;;;5093318;28;20024;-70
2020/12/14 04:47:55;;;;;;;34.28;22.05;;;5.40;92.90;;;;;;5094115;28;20024;-70
2020/12/14 04:50:23;;;;;;;31.20;19.75;;;5.40;93.40;;;;;;5091963;28;20062;-70
2020/12/14 04:52:50;;;;;;;35.50;22.77;;;5.30;92.70;;;;;;5093823;28;20021;-70
2020/12/14 04:55:23;;;;;;;35.63;21.55;;;5.40;93.10;;;;;;5092497;28;20032;-70
2020/12/14 04:57:52;;;;;;;31.85;20.10;;;5.40;93.20;;;;;;5092200;28;20260;-70
2020/12/14 05:00:19;;;;;;;27.55;19.23;;;5.30;92.10;;;;;;5097598;28;20130;-68
2020/12/14 05:02:45;;;;;;;31.45;20.20;;;5.30;92.10;;;;;;5096513;28;20463;-71
2020/12/14 05:05:12;;;;;;;30.77;19.50;;;5.30;92.00;;;;;;5097759;28;20042;-69
2020/12/14 05:07:46;;;;;;;32.80;20.95;;;5.30;92.10;;;;;;5098010;28;20106;-69
2020/12/14 05:10:13;;;;;;;34.70;22.65;;;5.30;92.20;;;;;;5096484;28;20042;-70
2020/12/14 05:12:43;;;;;;;32.58;20.60;;;5.30;92.10;;;;;;5097319;28;20106;-68
2020/12/14 05:15:39;;;;;;;37.85;23.92;;;5.30;92.20;;;;;;5098198;28;20028;-69
2020/12/14 05:18:11;;;;;;;40.20;25.02;;;5.30;92.20;;;;;;5083443;28;20121;-70
2020/12/14 05:20:37;;;;;;;47.83;28.02;;;5.30;92.50;;;;;;5095885;28;20039;-71
2020/12/14 05:23:08;;;;;;;51.38;31.15;;;5.30;92.80;;;;;;5097405;28;20016;-69
2020/12/14 05:25:34;;;;;;;39.38;25.08;;;5.30;93.30;;;;;;5097138;28;20131;-69
2020/12/14 05:28:16;;;;;;;40.90;25.50;;;5.40;92.60;;;;;;5097343;28;20024;-71
2020/12/14 05:30:47;;;;;;;34.45;23.77;;;5.40;92.50;;;;;;5097340;28;20360;-70
2020/12/14 05:33:19;;;;;;;37.33;23.65;;;5.30;92.00;;;;;;5095640;28;20081;-68
2020/12/14 05:35:46;;;;;;;41.15;25.95;;;5.30;92.10;;;;;;5096901;28;20463;-69
2020/12/14 05:38:14;;;;;;;36.53;23.35;;;5.30;92.20;;;;;;5095559;28;20035;-69
2020/12/14 05:40:41;;;;;;;49.67;28.55;;;5.30;92.40;;;;;;5095557;28;20032;-69
2020/12/14 05:43:12;;;;;;;39.88;24.80;;;5.30;92.70;;;;;;5096745;28;20059;-70
2020/12/14 05:45:38;;;;;;;42.33;25.40;;;5.30;92.40;;;;;;5097020;28;20452;-71
2020/12/14 05:48:05;;;;;;;63.22;35.25;;;5.30;92.40;;;;;;5095383;28;20399;-68
2020/12/14 05:50:31;;;;;;;62.35;34.63;;;5.30;92.30;;;;;;5095603;28;20042;-70
2020/12/14 05:53:01;;;;;;;48.60;29.02;;;5.30;93.00;;;;;;5095262;28;20035;-71
2020/12/14 05:55:29;;;;;;;45.72;26.65;;;5.30;92.80;;;;;;5096483;28;20027;-71
2020/12/14 05:58:00;;;;;;;59.15;35.50;;;5.30;92.70;;;;;;5095450;28;20081;-68
2020/12/14 06:00:27;;;;;;;56.13;29.67;;;5.40;92.90;;;;;;5096692;28;20024;-70
2020/12/14 06:02:54;;;;;;;48.67;28.77;;;5.30;92.80;;;;;;5096288;28;20364;-69
2020/12/14 06:05:23;;;;;;;78.53;42.65;;;5.30;92.90;;;;;;5096601;28;20032;-69
2020/12/14 06:07:59;;;;;;;54.15;28.90;;;5.30;92.80;;;;;;5096579;28;20382;-70
2020/12/14 06:10:27;;;;;;;50.47;27.10;;;5.20;92.70;;;;;;5096140;28;20025;-69
2020/12/14 06:13:02;;;;;;;53.78;28.80;;;5.30;92.90;;;;;;5096161;28;20134;-69
2020/12/14 06:15:30;;;;;;;79.18;39.05;;;5.30;93.00;;;;;;5094799;28;20031;-70
2020/12/14 06:17:59;;;;;;;75.05;40.55;;;5.30;92.90;;;;;;5095640;28;20514;-71
2020/12/14 06:20:25;;;;;;;65.68;35.85;;;5.20;92.40;;;;;;5096333;28;20020;-69
2020/12/14 06:23:11;;;;;;;58.67;31.20;;;5.30;92.70;;;;;;5094660;28;20030;-71
2020/12/14 06:25:39;;;;;;;65.65;34.38;;;5.40;92.90;;;;;;5094998;28;20024;-69
2020/12/14 06:28:29;;;;;;;56.55;29.90;;;5.30;92.50;;;;;;5096506;28;20464;-70
2020/12/14 06:30:56;;;;;;;56.20;30.83;;;5.20;92.70;;;;;;5094634;28;20044;-70
2020/12/14 06:33:51;;;;;;;53.00;29.40;;;5.30;92.70;;;;;;5096057;28;20028;-68
2020/12/14 06:36:18;;;;;;;57.70;27.75;;;5.30;92.90;;;;;;5086530;28;20507;-70
2020/12/14 06:38:45;;;;;;;60.45;30.02;;;5.20;93.00;;;;;;5095951;28;20060;-69
2020/12/14 06:41:20;;;;;;;68.15;37.28;;;5.30;93.00;;;;;;5095905;28;20020;-68
2020/12/14 06:43:48;;;;;;;230.15;137.88;;;5.20;92.90;;;;;;5095493;28;20428;-69
2020/12/14 06:46:25;;;;;;;66.95;39.83;;;5.20;92.60;;;;;;5093506;28;20378;-69
2020/12/14 06:48:53;;;;;;;95.40;66.20;;;5.20;92.80;;;;;;5095887;28;20032;-71
2020/12/14 06:51:19;;;;;;;46.03;28.40;;;5.20;92.90;;;;;;5095493;28;20463;-69
2020/12/14 06:53:53;;;;;;;61.50;36.03;;;5.10;92.50;;;;;;5095692;28;20104;-70
2020/12/14 06:56:28;;;;;;;61.38;35.90;;;5.20;93.10;;;;;;5095277;28;20039;-68
2020/12/14 06:58:55;;;;;;;73.78;41.53;;;5.20;92.70;;;;;;5095604;28;20035;-68
2020/12/14 07:01:34;;;;;;;120.53;38.42;;;5.20;93.00;;;;;;5095530;28;20103;-70
2020/12/14 07:04:07;;;;;;;51.63;32.22;;;5.30;93.00;;;;;;5093917;28;20028;-69
2020/12/14 07:06:33;;;;;;;181.68;89.70;;;5.20;92.70;;;;;;5096061;28;20028;-68
2020/12/14 07:08:59;;;;;;;602.33;344.98;;;5.30;92.50;;;;;;5095640;28;20024;-68
2020/12/14 07:11:25;;;;;;;226.18;102.57;;;5.30;92.50;;;;;;5094988;28;20028;-69
2020/12/14 07:13:52;;;;;;;243.75;128.25;;;5.30;92.60;;;;;;5094547;28;20031;-69
2020/12/14 07:16:25;;;;;;;251.23;173.55;;;5.20;92.40;;;;;;5095335;28;20487;-71
2020/12/14 07:18:53;;;;;;;112.28;67.43;;;5.20;92.60;;;;;;5094936;28;20032;-70
2020/12/14 07:21:19;;;;;;;146.30;90.25;;;5.30;92.60;;;;;;5093835;28;20063;-69
2020/12/14 07:23:46;;;;;;;125.40;69.25;;;5.20;92.40;;;;;;5094426;28;20028;-71
2020/12/14 07:26:14;;;;;;;108.70;58.50;;;5.20;92.60;;;;;;5094751;28;20483;-70
2020/12/14 07:28:46;;;;;;;136.60;76.38;;;5.30;92.70;;;;;;5095281;28;20020;-69
2020/12/14 07:31:13;;;;;;;128.20;73.50;;;5.30;92.70;;;;;;5095069;28;20480;-68
2020/12/14 07:33:40;;;;;;;120.35;68.75;;;5.30;92.80;;;;;;5093602;28;20020;-70
2020/12/14 07:36:10;;;;;;;109.00;66.85;;;5.30;92.50;;;;;;5094794;28;20111;-71
2020/12/14 07:38:51;;;;;;;118.47;68.72;;;5.30;92.60;;;;;;5093845;28;20069;-69
2020/12/14 07:41:17;;;;;;;81.68;47.10;;;5.30;92.80;;;;;;5094805;28;20062;-70
2020/12/14 07:43:47;;;;;;;96.93;52.28;;;5.30;92.70;;;;;;5095050;28;20032;-68
2020/12/14 07:46:25;;;;;;;75.47;43.47;;;5.30;92.70;;;;;;5094081;28;20028;-71
2020/12/14 07:48:56;;;;;;;66.13;40.08;;;5.40;92.70;;;;;;5093314;28;20111;-70
2020/12/14 07:51:22;;;;;;;75.03;45.42;;;5.40;92.60;;;;;;5093356;28;20039;-70
2020/12/14 07:53:52;;;;;;;71.68;40.53;;;5.30;92.60;;;;;;5093012;28;20027;-70
2020/12/14 07:56:20;;;;;;;101.50;69.00;;;5.30;92.80;;;;;;5093177;28;20380;-70
2020/12/14 07:58:49;;;;;;;66.05;36.97;;;5.30;92.80;;;;;;5093171;28;20040;-70
2020/12/14 08:01:19;;;;;;;86.68;44.55;;;5.40;92.90;;;;;;5092823;28;20452;-69
2020/12/14 08:03:46;;;;;;;80.45;45.30;;;5.40;92.70;;;;;;5093103;28;20046;-69
2020/12/14 08:06:19;;;;;;;85.28;49.35;;;5.40;92.60;;;;;;5094278;28;20040;-70
2020/12/14 08:08:49;;;;;;;71.15;43.05;;;5.40;92.70;;;;;;5093920;28;20106;-69
2020/12/14 08:11:20;;;;;;;64.78;38.90;;;5.40;92.60;;;;;;5093516;28;20116;-71
2020/12/14 08:13:51;;;;;;;53.40;32.25;;;5.50;92.80;;;;;;5092802;28;20052;-69
2020/12/14 08:16:20;;;;;;;70.30;38.15;;;5.40;92.60;;;;;;5093724;28;20093;-70
2020/12/14 08:18:49;;;;;;;73.82;40.22;;;5.50;92.70;;;;;;5092879;28;20077;-70
2020/12/14 08:21:24;;;;;;;84.40;44.58;;;5.50;92.90;;;;;;5093811;28;20024;-69
2020/12/14 08:23:53;;;;;;;63.75;37.95;;;5.50;92.70;;;;;;5094151;28;20031;-69
2020/12/14 08:26:28;;;;;;;69.55;36.85;;;5.50;92.60;;;;;;5093860;28;20031;-69
2020/12/14 08:28:57;;;;;;;;;;;5.50;92.90;;;;;;5094497;28;20024;-70
2020/12/14 08:31:24;;;;;;;78.28;41.17;;;5.40;92.50;;;;;;5094259;28;19920;-70
2020/12/14 08:33:55;;;;;;;67.63;38.55;;;5.50;92.80;;;;;;5092356;28;20028;-70
2020/12/14 08:36:21;;;;;;;50.83;29.65;;;5.50;92.80;;;;;;5093887;28;20035;-68
2020/12/14 08:38:48;;;;;;;64.55;37.50;;;5.50;92.50;;;;;;5092662;28;20028;-69
2020/12/14 08:41:24;;;;;;;78.63;42.10;;;5.50;92.70;;;;;;5093637;28;20078;-70
2020/12/14 08:43:53;;;;;;;70.63;38.15;;;5.40;92.40;;;;;;5094094;28;20115;-70
2020/12/14 08:46:21;;;;;;;73.03;40.78;;;5.50;92.90;;;;;;5092579;28;20039;-68
2020/12/14 08:48:54;;;;;;;85.03;42.50;;;5.50;92.70;;;;;;5093957;28;20027;-69
2020/12/14 08:51:23;;;;;;;68.55;41.25;;;5.50;92.80;;;;;;5093604;28;20016;-68
2020/12/14 08:53:50;;;;;;;62.45;38.58;;;5.50;92.40;;;;;;5093781;28;20032;-70
2020/12/14 08:56:23;;;;;;;72.47;44.05;;;5.50;92.80;;;;;;5092230;28;20479;-68
2020/12/14 08:58:57;;;;;;;88.28;52.75;;;5.60;92.80;;;;;;5092610;28;20387;-68
2020/12/14 09:01:29;;;;;;;94.25;54.42;;;5.40;92.90;;;;;;5094244;28;20028;-69
2020/12/14 09:04:04;;;;;;;129.23;86.63;;;5.40;93.30;;;;;;5093604;28;20101;-69
2020/12/14 09:06:33;;;;;;;116.70;74.88;;;5.40;93.40;;;;;;5092399;28;20077;-69
2020/12/14 09:09:08;;;;;;;102.35;64.70;;;5.40;93.90;;;;;;5093666;28;20063;-70
2020/12/14 09:11:36;;;;;;;93.88;61.58;;;5.40;93.60;;;;;;5092134;28;20029;-69
2020/12/14 09:14:07;;;;;;;116.43;79.63;;;5.50;93.80;;;;;;5094171;28;20032;-70
2020/12/14 09:16:33;;;;;;;84.47;58.17;;;5.50;93.60;;;;;;5092464;28;20028;-69
2020/12/14 09:19:00;;;;;;;188.52;117.15;;;5.40;93.70;;;;;;5092277;28;20418;-68
2020/12/14 09:21:26;;;;;;;111.18;71.65;;;5.40;93.80;;;;;;5093191;28;20047;-70
2020/12/14 09:24:10;;;;;;;87.05;50.30;;;5.50;94.00;;;;;;5093482;28;20028;-69
2020/12/14 09:26:36;;;;;;;106.68;59.08;;;5.50;94.00;;;;;;5092207;28;20028;-69
2020/12/14 09:29:02;;;;;;;154.70;80.03;;;5.40;93.70;;;;;;5092168;28;20035;-70
2020/12/14 09:31:28;;;;;;;187.85;100.93;;;5.40;93.80;;;;;;5092659;28;20568;-69
2020/12/14 09:33:54;;;;;;;182.13;95.65;;;5.40;93.90;;;;;;5093421;28;20109;-68
2020/12/14 09:36:19;;;;;;;212.23;107.68;;;5.40;93.60;;;;;;5093017;28;20455;-69
2020/12/14 09:38:45;;;;;;;195.20;93.57;;;5.50;93.70;;;;;;5092822;28;20059;-69
2020/12/14 09:41:11;;;;;;;189.55;89.97;;;5.50;93.40;;;;;;5093773;28;20099;-71
2020/12/14 09:43:37;;;;;;;140.73;74.00;;;5.60;93.40;;;;;;5093065;28;20529;-68
2020/12/14 09:46:02;;;;;;;149.57;81.35;;;5.50;93.40;;;;;;5094664;28;20032;-68
2020/12/14 09:48:28;;;;;;;114.32;62.58;;;5.50;93.40;;;;;;5095934;28;20116;-69
2020/12/14 09:50:54;;;;;;;107.07;58.83;;;5.60;93.60;;;;;;5095616;28;20065;-69
2020/12/14 09:53:20;;;;;;;72.03;42.15;;;5.60;93.60;;;;;;5096574;28;20118;-69
2020/12/14 09:55:45;;;;;;;125.68;74.50;;;5.60;93.20;;;;;;5097034;28;20070;-70
2020/12/14 09:58:11;;;;;;;92.68;53.15;;;5.60;93.30;;;;;;5096961;28;20599;-71
2020/12/14 10:00:37;;;;;;;105.40;63.75;;;5.70;93.40;;;;;;5096623;28;20061;-70
2020/12/14 10:03:04;;;;;;;65.43;39.28;;;5.70;93.40;;;;;;5096713;28;20024;-68
2020/12/14 10:05:30;;;;;;;88.82;54.00;;;5.70;92.90;;;;;;5096554;28;20028;-69
2020/12/14 10:07:55;;;;;;;59.80;37.25;;;5.70;92.90;;;;;;5095359;28;20031;-69
2020/12/14 10:10:21;;;;;;;59.33;35.80;;;5.60;92.60;;;;;;5096082;28;20349;-69
2020/12/14 10:12:47;;;;;;;71.82;42.00;;;5.50;92.80;;;;;;5095952;28;20032;-70
2020/12/14 10:15:13;;;;;;;70.55;40.60;;;5.60;92.80;;;;;;5096513;28;20024;-70
2020/12/14 10:17:39;;;;;;;76.72;44.45;;;5.60;93.30;;;;;;5096367;28;20502;-69
2020/12/14 10:20:05;;;;;;;72.78;42.55;;;5.60;93.00;;;;;;5096354;28;20459;-68
2020/12/14 10:22:32;;;;;;;78.15;45.15;;;5.60;93.00;;;;;;5095038;28;20066;-70
2020/12/14 10:24:58;;;;;;;83.60;50.10;;;5.70;93.10;;;;;;5094933;28;20107;-69
2020/12/14 10:27:24;;;;;;;81.78;49.20;;;5.60;93.00;;;;;;5094626;28;20028;-69
2020/12/14 10:29:49;;;;;;;69.68;42.38;;;5.70;93.30;;;;;;5094775;28;20059;-69
2020/12/14 10:32:15;;;;;;;48.25;30.75;;;5.70;92.70;;;;;;5096800;28;20016;-69
2020/12/14 10:34:41;;;;;;;39.88;26.10;;;5.70;92.80;;;;;;5095819;28;20024;-68
2020/12/14 10:37:07;;;;;;;49.95;30.35;;;5.70;92.50;;;;;;5094678;28;20498;-70
2020/12/14 10:39:33;;;;;;;41.97;25.35;;;5.80;93.00;;;;;;5094693;28;20047;-68
2020/12/14 10:41:58;;;;;;;41.40;25.50;;;5.70;92.30;;;;;;5094097;28;20020;-70
2020/12/14 10:44:24;;;;;;;36.63;22.88;;;5.80;92.70;;;;;;5095630;28;20025;-69
2020/12/14 10:46:50;;;;;;;44.83;27.92;;;5.70;92.20;;;;;;5095618;28;20055;-70
2020/12/14 10:49:17;;;;;;;49.00;31.17;;;5.70;92.50;;;;;;5095474;28;20024;-68
2020/12/14 10:51:47;;;;;;;51.65;30.13;;;5.70;92.20;;;;;;5095711;28;20020;-69
2020/12/14 10:54:13;;;;;;;42.88;27.50;;;5.80;92.30;;;;;;5094056;28;20024;-69
2020/12/14 10:56:39;;;;;;;64.63;36.67;;;5.80;92.80;;;;;;5096193;28;20047;-69
2020/12/14 10:59:04;;;;;;;70.07;40.28;;;5.90;92.20;;;;;;5095908;28;20452;-69
2020/12/14 11:01:30;;;;;;;59.15;36.92;;;5.90;92.50;;;;;;5095519;28;20210;-68
2020/12/14 11:03:56;;;;;;;73.30;42.80;;;5.90;92.00;;;;;;5095467;28;20070;-70
2020/12/14 11:06:21;;;;;;;103.18;51.70;;;5.90;92.00;;;;;;5095937;28;20089;-68
2020/12/14 11:08:47;;;;;;;92.80;49.72;;;5.90;91.90;;;;;;5094832;28;20066;-67
2020/12/14 11:11:14;;;;;;;77.22;40.65;;;5.80;92.20;;;;;;5094706;28;20024;-70
2020/12/14 11:13:40;;;;;;;111.70;54.67;;;5.80;91.40;;;;;;5095279;28;20045;-69
2020/12/14 11:16:06;;;;;;;129.90;63.17;;;5.80;92.40;;;;;;5095235;28;20106;-70
2020/12/14 11:18:33;;;;;;;125.22;61.40;;;5.90;92.30;;;;;;5094878;28;20024;-71
2020/12/14 11:20:59;;;;;;;136.13;69.68;;;5.90;92.10;;;;;;5094094;28;20433;-68
2020/12/14 11:23:25;;;;;;;141.65;72.78;;;5.90;91.80;;;;;;5093545;28;20024;-67
2020/12/14 11:25:50;;;;;;;213.90;110.40;;;6.00;92.10;;;;;;5093752;28;20043;-69
2020/12/14 11:28:16;;;;;;;177.18;97.20;;;6.00;91.90;;;;;;5095529;28;20028;-68
2020/12/14 11:30:42;;;;;;;90.13;55.17;;;5.90;91.50;;;;;;5094691;28;20131;-69
2020/12/14 11:33:07;;;;;;;108.45;59.75;;;5.90;91.30;;;;;;5095223;28;20078;-69
2020/12/14 11:35:33;;;;;;;99.47;58.00;;;5.90;91.70;;;;;;5094628;28;20020;-69
2020/12/14 11:37:59;;;;;;;91.47;49.00;;;6.00;91.90;;;;;;5094219;28;20093;-70
2020/12/14 11:40:25;;;;;;;103.90;58.35;;;5.90;91.60;;;;;;5095106;28;20081;-69
2020/12/14 11:42:51;;;;;;;89.65;53.38;;;5.80;91.60;;;;;;5093564;28;20062;-69
2020/12/14 11:45:17;;;;;;;78.85;47.30;;;5.80;91.60;;;;;;5094456;28;20052;-69
2020/12/14 11:47:42;;;;;;;81.40;48.53;;;5.90;92.00;;;;;;5094406;28;20464;-69
2020/12/14 11:50:08;;;;;;;82.93;45.40;;;5.90;92.00;;;;;;5095248;28;20030;-69
2020/12/14 11:52:34;;;;;;;81.35;45.50;;;5.90;92.20;;;;;;5094585;28;20095;-69
2020/12/14 11:55:00;;;;;;;65.30;40.97;;;5.90;91.80;;;;;;5093314;28;20028;-69
2020/12/14 11:57:26;;;;;;;89.22;56.33;;;5.80;91.60;;;;;;5094121;28;20028;-69
2020/12/14 11:59:52;;;;;;;58.88;36.03;;;5.90;92.10;;;;;;5093145;28;20035;-69
2020/12/14 12:02:18;;;;;;;86.38;46.35;;;5.80;91.70;;;;;;5094186;28;20028;-69
2020/12/14 12:04:44;;;;;;;102.22;51.60;;;5.90;92.40;;;;;;5093678;28;20039;-68
2020/12/14 12:07:10;;;;;;;95.78;51.58;;;6.00;92.50;;;;;;5094076;28;20028;-69
2020/12/14 12:09:41;;;;;;;86.57;49.95;;;5.90;92.20;;;;;;5093643;28;20030;-69
2020/12/14 12:12:07;;;;;;;115.70;58.22;;;6.00;92.10;;;;;;5094685;28;20360;-68
2020/12/14 12:14:33;;;;;;;131.02;67.18;;;6.00;92.20;;;;;;5094288;28;20020;-70
2020/12/14 12:16:59;;;;;;;94.18;57.95;;;6.00;92.20;;;;;;5092825;28;20072;-69
2020/12/14 12:19:25;;;;;;;102.20;55.97;;;5.90;91.90;;;;;;5093593;28;20115;-68
2020/12/14 12:21:51;;;;;;;63.35;39.20;;;6.00;92.30;;;;;;5094210;28;20481;-68
2020/12/14 12:24:17;;;;;;;88.22;50.78;;;5.90;92.00;;;;;;5094083;28;20455;-69
2020/12/14 12:26:52;;;;;;;89.88;49.22;;;5.90;92.20;;;;;;5092546;28;20433;-69
2020/12/14 12:29:18;;;;;;;79.88;50.72;;;6.00;92.40;;;;;;5094081;28;20028;-69
2020/12/14 12:32:02;;;;;;;130.85;82.07;;;6.00;92.00;;;;;;5094674;28;20044;-69
2020/12/14 12:34:28;;;;;;;129.00;79.30;;;6.00;92.20;;;;;;5093462;28;20446;-69
2020/12/14 12:36:55;;;;;;;80.85;51.70;;;6.00;92.10;;;;;;5093856;28;20107;-68